createdAt,value
2023-04-19T00:00:34.649Z,10.20
2023-04-19T00:03:02.276Z,10.20
2023-04-19T00:05:29.200Z,10.20
2023-04-19T00:07:55.940Z,10.10
2023-04-19T00:10:22.579Z,10.10
2023-04-19T00:12:49.202Z,10.10
2023-04-19T00:15:15.865Z,10.10
2023-04-19T00:17:42.528Z,10.10
2023-04-19T00:20:10.448Z,10.10
2023-04-19T00:22:37.061Z,10.10
2023-04-19T00:25:03.866Z,10.00
2023-04-19T00:27:30.474Z,10.00
2023-04-19T00:29:57.769Z,10.00
2023-04-19T00:32:24.393Z,10.00
2023-04-19T00:34:51.077Z,10.00
2023-04-19T00:37:17.704Z,9.90
2023-04-19T00:39:44.321Z,9.90
2023-04-19T00:42:10.914Z,9.90
2023-04-19T00:44:37.522Z,9.80
2023-04-19T00:47:04.163Z,9.80
2023-04-19T00:49:30.790Z,9.80
2023-04-19T00:51:57.374Z,9.80
2023-04-19T00:54:23.984Z,9.80
2023-04-19T00:56:50.605Z,9.80
2023-04-19T00:59:17.484Z,9.80
2023-04-19T01:01:44.159Z,9.80
2023-04-19T01:04:10.903Z,9.80
2023-04-19T01:06:37.731Z,9.80
2023-04-19T01:09:04.844Z,9.80
2023-04-19T01:11:31.440Z,9.70
2023-04-19T01:13:58.523Z,9.70
2023-04-19T01:16:26.902Z,9.70
2023-04-19T01:18:53.704Z,9.70
2023-04-19T01:21:20.314Z,9.70
2023-04-19T01:23:46.920Z,9.70
2023-04-19T01:26:13.652Z,9.70
2023-04-19T01:28:40.279Z,9.60
2023-04-19T01:31:07.088Z,9.60
2023-04-19T01:33:33.899Z,9.60
2023-04-19T01:36:00.594Z,9.60
2023-04-19T01:38:27.232Z,9.60
2023-04-19T01:40:56.698Z,9.60
2023-04-19T01:43:23.294Z,9.60
2023-04-19T01:45:49.952Z,9.50
2023-04-19T01:48:16.558Z,9.50
2023-04-19T01:50:43.165Z,9.50
2023-04-19T01:53:09.778Z,9.40
2023-04-19T01:55:36.383Z,9.40
2023-04-19T01:58:03.004Z,9.40
2023-04-19T02:00:29.634Z,9.40
2023-04-19T02:02:56.408Z,9.40
2023-04-19T02:05:23.143Z,9.30
2023-04-19T02:07:49.761Z,9.30
2023-04-19T02:10:16.384Z,9.30
2023-04-19T02:12:43.044Z,9.30
2023-04-19T02:15:09.963Z,9.20
2023-04-19T02:17:36.608Z,9.20
2023-04-19T02:20:04.559Z,9.20
2023-04-19T02:22:31.165Z,9.20
2023-04-19T02:24:57.768Z,9.10
2023-04-19T02:27:24.411Z,9.10
2023-04-19T02:29:51.327Z,9.20
2023-04-19T02:32:17.926Z,9.20
2023-04-19T02:34:44.528Z,9.20
2023-04-19T02:37:11.129Z,9.20
2023-04-19T02:39:37.806Z,9.20
2023-04-19T02:42:04.415Z,9.20
2023-04-19T02:44:31.234Z,9.20
2023-04-19T02:46:57.846Z,9.10
2023-04-19T02:49:24.505Z,9.10
2023-04-19T02:51:51.262Z,9.10
2023-04-19T02:54:18.645Z,9.00
2023-04-19T02:56:45.259Z,9.00
2023-04-19T02:59:11.874Z,8.90
2023-04-19T03:01:38.518Z,8.80
2023-04-19T03:04:05.309Z,8.80
2023-04-19T03:06:31.957Z,8.80
2023-04-19T03:08:58.566Z,8.70
2023-04-19T03:11:25.160Z,8.60
2023-04-19T03:13:51.770Z,8.60
2023-04-19T03:16:18.524Z,8.60
2023-04-19T03:18:47.230Z,8.60
2023-04-19T03:21:15.332Z,8.60
2023-04-19T03:23:42.392Z,8.60
2023-04-19T03:26:08.998Z,8.60
2023-04-19T03:28:35.605Z,8.60
2023-04-19T03:31:02.876Z,8.50
2023-04-19T03:33:29.569Z,8.50
2023-04-19T03:35:56.162Z,8.40
2023-04-19T03:38:22.782Z,8.40
2023-04-19T03:40:50.001Z,8.40
2023-04-19T03:43:16.660Z,8.30
2023-04-19T03:45:43.267Z,8.30
2023-04-19T03:48:09.912Z,8.20
2023-04-19T03:50:36.522Z,8.20
2023-04-19T03:53:04.712Z,8.10
2023-04-19T03:55:31.384Z,8.00
2023-04-19T03:57:58.035Z,7.90
2023-04-19T04:00:24.735Z,7.90
2023-04-19T04:02:51.492Z,7.80
2023-04-19T04:05:18.288Z,7.70
2023-04-19T04:07:44.919Z,7.60
2023-04-19T04:10:11.639Z,7.60
2023-04-19T04:12:39.020Z,7.60
2023-04-19T04:15:06.564Z,7.50
2023-04-19T04:17:33.164Z,7.50
2023-04-19T04:19:59.828Z,7.40
2023-04-19T04:22:26.882Z,7.30
2023-04-19T04:24:54.291Z,7.30
2023-04-19T04:27:21.899Z,7.20
2023-04-19T04:29:49.460Z,7.20
2023-04-19T04:32:18.037Z,7.20
2023-04-19T04:34:44.804Z,7.20
2023-04-19T04:37:12.397Z,7.20
2023-04-19T04:39:39.814Z,7.20
2023-04-19T04:42:08.760Z,7.20
2023-04-19T04:44:36.181Z,7.20
2023-04-19T04:47:02.954Z,7.20
2023-04-19T04:49:30.776Z,7.20
2023-04-19T04:51:57.465Z,7.20
2023-04-19T04:54:25.091Z,7.10
2023-04-19T04:56:51.796Z,7.10
2023-04-19T04:59:18.834Z,7.10
2023-04-19T05:01:45.494Z,7.00
2023-04-19T05:04:12.131Z,7.10
2023-04-19T05:06:41.067Z,7.10
2023-04-19T05:09:08.080Z,7.10
2023-04-19T05:11:34.716Z,7.10
2023-04-19T05:14:01.458Z,7.10
2023-04-19T05:16:28.106Z,7.10
2023-04-19T05:18:54.931Z,7.10
2023-04-19T05:21:22.166Z,7.20
2023-04-19T05:23:48.810Z,7.30
2023-04-19T05:26:15.814Z,7.30
2023-04-19T05:28:43.213Z,7.30
2023-04-19T05:31:09.894Z,7.30
2023-04-19T05:33:36.602Z,7.40
2023-04-19T05:36:03.417Z,7.50
2023-04-19T05:38:30.081Z,7.50
2023-04-19T05:40:56.726Z,7.40
2023-04-19T05:43:23.430Z,7.40
2023-04-19T05:45:50.072Z,7.40
2023-04-19T05:48:16.841Z,7.40
2023-04-19T05:50:43.490Z,7.50
2023-04-19T05:53:10.234Z,7.60
2023-04-19T05:55:36.829Z,7.70
2023-04-19T05:58:03.488Z,7.80
2023-04-19T06:00:30.592Z,8.00
2023-04-19T06:02:57.368Z,8.20
2023-04-19T06:05:24.247Z,8.50
2023-04-19T06:07:55.652Z,8.80
2023-04-19T06:10:34.021Z,8.90
2023-04-19T06:13:15.740Z,9.40
2023-04-19T06:15:42.373Z,9.90
2023-04-19T06:18:18.598Z,10.10
2023-04-19T06:20:46.687Z,10.30
2023-04-19T06:23:14.724Z,10.30
2023-04-19T06:25:41.645Z,10.30
2023-04-19T06:28:08.336Z,10.40
2023-04-19T06:30:34.976Z,10.70
2023-04-19T06:33:01.725Z,11.00
2023-04-19T06:35:28.631Z,11.10
2023-04-19T06:37:55.996Z,11.20
2023-04-19T06:40:22.744Z,11.20
2023-04-19T06:42:49.349Z,11.50
2023-04-19T06:45:16.250Z,11.90
2023-04-19T06:47:43.115Z,12.30
2023-04-19T06:50:10.928Z,12.80
2023-04-19T06:52:37.780Z,12.80
2023-04-19T06:55:05.478Z,12.80
2023-04-19T06:57:32.615Z,12.40
2023-04-19T06:59:59.546Z,12.40
2023-04-19T07:02:26.378Z,12.60
2023-04-19T07:04:53.137Z,12.90
2023-04-19T07:07:19.884Z,13.10
2023-04-19T07:09:46.677Z,13.40
2023-04-19T07:12:13.283Z,13.60
2023-04-19T07:14:39.905Z,13.60
2023-04-19T07:17:06.656Z,13.40
2023-04-19T07:19:35.428Z,13.30
2023-04-19T07:22:03.089Z,13.40
2023-04-19T07:24:30.391Z,13.70
2023-04-19T07:26:57.479Z,13.90
2023-04-19T07:29:24.155Z,14.10
2023-04-19T07:31:50.844Z,13.70
2023-04-19T07:34:17.904Z,13.60
2023-04-19T07:36:44.757Z,13.50
2023-04-19T07:39:11.372Z,13.50
2023-04-19T07:41:38.123Z,13.50
2023-04-19T07:44:04.777Z,13.40
2023-04-19T07:46:31.450Z,13.50
2023-04-19T07:48:58.156Z,13.80
2023-04-19T07:51:25.145Z,13.90
2023-04-19T07:53:51.837Z,13.20
2023-04-19T07:56:20.016Z,13.20
2023-04-19T07:58:50.793Z,12.90
2023-04-19T08:01:23.582Z,12.90
2023-04-19T08:03:50.594Z,13.20
2023-04-19T08:06:18.019Z,13.20
2023-04-19T08:08:44.653Z,13.10
2023-04-19T08:11:11.274Z,13.40
2023-04-19T08:13:38.822Z,13.80
2023-04-19T08:18:36.712Z,14.40
2023-04-19T08:21:03.560Z,14.20
2023-04-19T08:23:41.204Z,14.50
2023-04-19T08:26:14.223Z,13.90
2023-04-19T08:28:40.872Z,13.70
2023-04-19T08:31:07.800Z,13.40
2023-04-19T08:33:34.459Z,12.70
2023-04-19T08:36:01.092Z,11.90
2023-04-19T08:38:27.753Z,11.60
2023-04-19T08:40:55.173Z,11.20
2023-04-19T08:43:22.049Z,11.20
2023-04-19T08:45:49.369Z,11.10
2023-04-19T08:48:16.400Z,11.20
2023-04-19T08:50:56.479Z,11.20
2023-04-19T08:53:30.394Z,11.20
2023-04-19T08:56:12.716Z,11.30
2023-04-19T08:59:00.318Z,11.30
2023-04-19T09:01:35.940Z,11.30
2023-04-19T09:04:17.192Z,11.20
2023-04-19T09:06:53.192Z,11.30
2023-04-19T09:11:59.884Z,11.50
2023-04-19T09:14:29.415Z,11.40
2023-04-19T09:17:13.086Z,11.70
2023-04-19T09:19:47.235Z,11.70
2023-04-19T09:22:14.663Z,11.80
2023-04-19T09:27:12.210Z,11.60
2023-04-19T09:29:39.049Z,11.50
2023-04-19T09:32:06.435Z,11.70
2023-04-19T09:34:33.197Z,11.60
2023-04-19T09:37:17.892Z,11.50
2023-04-19T09:39:54.829Z,11.60
2023-04-19T09:42:42.277Z,11.60
2023-04-19T09:47:38.558Z,11.70
2023-04-19T09:50:21.269Z,11.80
2023-04-19T09:52:50.217Z,11.70
2023-04-19T09:55:26.906Z,11.90
2023-04-19T09:57:54.975Z,12.00
2023-04-19T10:00:22.674Z,12.10
2023-04-19T10:02:55.887Z,12.10
2023-04-19T10:05:23.169Z,12.00
2023-04-19T10:07:50.216Z,12.20
2023-04-19T10:10:20.830Z,12.10
2023-04-19T10:13:15.472Z,11.90
2023-04-19T10:18:10.064Z,12.20
2023-04-19T10:21:02.780Z,12.50
2023-04-19T10:23:30.983Z,12.60
2023-04-19T10:25:58.589Z,12.30
2023-04-19T10:28:28.033Z,12.20
2023-04-19T10:30:56.451Z,12.10
2023-04-19T10:33:27.844Z,12.30
2023-04-19T10:36:01.599Z,12.30
2023-04-19T10:38:48.294Z,12.30
2023-04-19T10:41:17.613Z,12.30
2023-04-19T10:43:58.254Z,12.30
2023-04-19T10:46:26.182Z,12.50
2023-04-19T10:48:54.152Z,12.50
2023-04-19T10:51:23.173Z,12.30
2023-04-19T10:53:58.953Z,12.50
2023-04-19T10:56:35.457Z,12.50
2023-04-19T10:59:02.786Z,12.50
2023-04-19T11:01:40.871Z,12.40
2023-04-19T11:04:18.604Z,12.50
2023-04-19T11:06:54.744Z,12.60
2023-04-19T11:09:42.617Z,12.60
2023-04-19T11:12:12.223Z,12.40
2023-04-19T11:14:53.356Z,12.50
2023-04-19T11:17:33.909Z,12.60
2023-04-19T11:20:11.233Z,12.70
2023-04-19T11:22:42.700Z,12.50
2023-04-19T11:25:17.933Z,12.50
2023-04-19T11:27:50.169Z,12.60
2023-04-19T11:30:20.297Z,12.70
2023-04-19T11:32:49.103Z,12.70
2023-04-19T12:01:11.226Z,12.40
2023-04-19T12:03:58.352Z,12.40
2023-04-19T12:06:29.683Z,12.50
2023-04-19T12:08:56.480Z,12.60
2023-04-19T12:11:24.571Z,12.60
2023-04-19T12:14:13.001Z,12.60
2023-04-19T12:16:39.626Z,12.60
2023-04-19T12:19:17.414Z,12.50
2023-04-19T12:21:46.098Z,12.50
2023-04-19T12:24:14.757Z,12.60
2023-04-19T12:26:56.262Z,12.60
2023-04-19T12:29:23.181Z,12.70
2023-04-19T12:31:49.837Z,12.80
2023-04-19T12:34:16.458Z,13.00
2023-04-19T12:36:43.094Z,13.10
2023-04-19T12:39:09.779Z,12.90
2023-04-19T12:41:36.393Z,12.90
2023-04-19T12:44:03.071Z,12.90
2023-04-19T12:46:29.716Z,13.00
2023-04-19T12:48:56.377Z,13.00
2023-04-19T12:51:22.980Z,12.90
2023-04-19T12:53:49.823Z,12.90
2023-04-19T12:56:17.234Z,13.00
2023-04-19T12:58:44.065Z,13.00
2023-04-19T13:01:10.966Z,13.20
2023-04-19T13:03:37.962Z,13.10
2023-04-19T13:06:04.933Z,13.20
2023-04-19T13:08:44.151Z,13.00
2023-04-19T13:11:12.278Z,12.80
2023-04-19T13:13:38.878Z,12.90
2023-04-19T13:16:06.426Z,12.90
2023-04-19T13:18:33.060Z,13.10
2023-04-19T13:20:59.662Z,13.40
2023-04-19T13:23:26.408Z,13.00
2023-04-19T13:25:53.021Z,13.00
2023-04-19T13:28:19.625Z,13.00
2023-04-19T13:30:46.235Z,12.90
2023-04-19T13:33:12.822Z,12.90
2023-04-19T13:35:39.437Z,13.00
2023-04-19T13:38:06.077Z,13.00
2023-04-19T13:40:32.698Z,13.20
2023-04-19T13:42:59.471Z,13.20
2023-04-19T13:45:26.687Z,13.40
2023-04-19T13:47:53.711Z,13.40
2023-04-19T13:50:20.926Z,13.20
2023-04-19T13:52:47.556Z,13.40
2023-04-19T13:55:14.184Z,13.50
2023-04-19T13:57:40.894Z,13.30
2023-04-19T14:00:08.373Z,13.00
2023-04-19T14:02:35.660Z,12.70
2023-04-19T14:05:04.145Z,12.50
2023-04-19T14:07:31.502Z,12.80
2023-04-19T14:09:58.217Z,13.00
2023-04-19T14:12:24.854Z,13.00
2023-04-19T14:14:51.484Z,12.90
2023-04-19T14:17:18.103Z,13.20
2023-04-19T14:19:44.716Z,13.30
2023-04-19T14:22:11.351Z,13.30
2023-04-19T14:24:38.038Z,13.30
2023-04-19T14:27:10.886Z,13.30
2023-04-19T14:29:38.481Z,13.20
2023-04-19T14:32:16.638Z,13.30
2023-04-19T14:34:47.883Z,13.50
2023-04-19T14:37:14.528Z,13.60
2023-04-19T14:39:41.165Z,13.10
2023-04-19T14:42:07.772Z,13.00
2023-04-19T14:44:34.394Z,13.00
2023-04-19T14:47:01.013Z,13.00
2023-04-19T14:49:27.667Z,13.20
2023-04-19T14:51:54.364Z,13.40
2023-04-19T14:54:21.095Z,13.40
2023-04-19T14:56:47.755Z,13.10
2023-04-19T14:59:14.502Z,13.10
2023-04-19T15:01:41.358Z,13.00
2023-04-19T15:04:08.939Z,13.10
2023-04-19T15:06:35.739Z,13.10
2023-04-19T15:09:02.360Z,13.00
2023-04-19T15:11:29.814Z,12.80
2023-04-19T15:13:56.475Z,12.70
2023-04-19T15:16:23.134Z,12.90
2023-04-19T15:18:49.793Z,13.20
2023-04-19T15:21:19.099Z,13.40
2023-04-19T15:23:45.729Z,13.70
2023-04-19T15:26:12.363Z,13.90
2023-04-19T15:28:39.138Z,13.80
2023-04-19T15:31:14.445Z,13.40
2023-04-19T15:33:46.551Z,13.00
2023-04-19T15:36:17.980Z,12.70
2023-04-19T15:39:00.697Z,12.60
2023-04-19T15:41:31.953Z,12.50
2023-04-19T15:44:01.363Z,12.50
2023-04-19T15:46:29.192Z,12.50
2023-04-19T15:49:05.522Z,12.50
2023-04-19T15:51:33.021Z,12.60
2023-04-19T15:53:59.961Z,12.50
2023-04-19T15:56:31.237Z,12.40
2023-04-19T15:58:58.085Z,12.10
2023-04-19T16:01:41.631Z,11.90
2023-04-19T16:04:13.043Z,11.80
2023-04-19T16:06:39.833Z,11.70
2023-04-19T16:09:09.958Z,11.60
2023-04-19T16:11:54.520Z,11.70
2023-04-19T16:14:26.270Z,11.80
2023-04-19T16:17:03.045Z,11.80
2023-04-19T16:19:41.794Z,12.00
2023-04-19T16:22:19.935Z,12.10
2023-04-19T16:24:55.883Z,12.20
2023-04-19T16:27:43.135Z,12.30
2023-04-19T16:30:12.387Z,12.20
2023-04-19T16:32:55.212Z,12.30
2023-04-19T16:35:38.097Z,12.20
2023-04-19T16:38:06.904Z,12.10
2023-04-19T16:40:36.364Z,12.00
2023-04-19T16:43:04.922Z,11.80
2023-04-19T16:45:32.109Z,11.70
2023-04-19T16:47:58.899Z,11.60
2023-04-19T16:50:26.186Z,11.60
2023-04-19T16:52:52.782Z,11.60
2023-04-19T16:55:20.952Z,11.60
2023-04-19T16:57:53.703Z,11.60
2023-04-19T17:00:32.057Z,11.50
2023-04-19T17:02:58.831Z,11.40
2023-04-19T17:05:31.848Z,11.30
2023-04-19T17:08:02.845Z,11.20
2023-04-19T17:10:31.833Z,11.20
2023-04-19T17:13:14.314Z,11.30
2023-04-19T17:15:41.032Z,11.20
2023-04-19T17:18:07.774Z,11.20
2023-04-19T17:20:37.412Z,11.10
2023-04-19T17:23:06.211Z,11.10
2023-04-19T17:25:32.866Z,11.00
2023-04-19T17:27:59.463Z,10.90
2023-04-19T17:30:55.946Z,10.80
2023-04-19T17:33:30.290Z,10.70
2023-04-19T17:36:00.675Z,10.60
2023-04-19T17:38:32.619Z,10.60
2023-04-19T17:41:13.029Z,10.60
2023-04-19T17:43:41.324Z,10.50
2023-04-19T17:46:40.236Z,10.50
2023-04-19T17:49:32.985Z,10.50
2023-04-19T17:52:01.935Z,10.50
2023-04-19T17:54:43.396Z,10.40
2023-04-19T17:57:16.308Z,10.40
2023-04-19T17:59:49.524Z,10.30
2023-04-19T18:02:40.835Z,10.30
2023-04-19T18:05:21.995Z,10.30
2023-04-19T18:07:56.178Z,10.20
2023-04-19T18:10:25.931Z,10.00
2023-04-19T18:12:56.028Z,10.00
2023-04-19T18:15:27.484Z,9.90
2023-04-19T18:18:03.319Z,9.80
2023-04-19T18:20:37.561Z,9.80
2023-04-19T18:23:04.177Z,9.70
2023-04-19T18:25:30.798Z,9.60
2023-04-19T18:27:57.416Z,9.60
2023-04-19T18:30:24.039Z,9.50
2023-04-19T18:32:50.761Z,9.40
2023-04-19T18:35:22.320Z,9.40
2023-04-19T18:37:49.497Z,9.30
2023-04-19T18:40:16.197Z,9.30
2023-04-19T18:42:42.815Z,9.20
2023-04-19T18:45:09.897Z,9.10
2023-04-19T18:47:36.569Z,9.00
2023-04-19T18:50:06.110Z,9.00
2023-04-19T18:52:34.526Z,8.90
2023-04-19T18:55:04.978Z,8.90
2023-04-19T18:57:36.549Z,8.90
2023-04-19T19:00:06.085Z,8.90
2023-04-19T19:02:34.452Z,8.90
2023-04-19T19:05:02.229Z,8.90
2023-04-19T19:10:01.469Z,9.10
2023-04-19T19:12:28.538Z,9.00
2023-04-19T19:14:55.245Z,9.00
2023-04-19T19:17:22.348Z,9.00
2023-04-19T19:19:49.059Z,9.00
2023-04-19T19:22:26.284Z,8.90
2023-04-19T19:24:54.735Z,8.90
2023-04-19T19:27:21.376Z,8.90
2023-04-19T19:29:47.973Z,8.90
2023-04-19T19:32:14.580Z,8.90
2023-04-19T19:34:53.890Z,8.90
2023-04-19T19:37:21.933Z,8.90
2023-04-19T19:39:48.577Z,8.90
2023-04-19T19:42:18.446Z,8.90
2023-04-19T19:44:45.153Z,8.90
2023-04-19T19:47:12.608Z,8.90
2023-04-19T19:52:08.949Z,8.80
2023-04-19T19:54:35.938Z,8.80
2023-04-19T19:59:34.973Z,8.90
2023-04-19T20:02:03.385Z,8.90
2023-04-19T20:04:31.122Z,9.00
2023-04-19T20:07:28.822Z,9.00
2023-04-19T20:09:45.033Z,9.00
2023-04-19T20:12:13.361Z,8.90
2023-04-19T20:14:40.585Z,8.90
2023-04-19T20:17:07.569Z,8.80
2023-04-19T20:19:34.181Z,8.80
2023-04-19T20:22:00.842Z,8.80
2023-04-19T20:24:27.541Z,8.60
2023-04-19T20:26:54.168Z,8.60
2023-04-19T20:29:20.857Z,8.60
2023-04-19T20:31:47.526Z,8.60
2023-04-19T20:34:14.196Z,8.60
2023-04-19T20:36:41.702Z,8.50
2023-04-19T20:39:12.990Z,8.50
2023-04-19T20:41:40.663Z,8.40
2023-04-19T20:44:07.495Z,8.40
2023-04-19T20:46:34.768Z,8.40
2023-04-19T20:49:01.406Z,8.40
2023-04-19T20:51:28.013Z,8.40
2023-04-19T20:53:54.625Z,8.40
2023-04-19T20:56:21.511Z,8.40
2023-04-19T20:58:48.128Z,8.40
2023-04-19T21:01:17.414Z,8.40
2023-04-19T21:03:44.782Z,8.30
2023-04-19T21:06:11.995Z,8.30
2023-04-19T21:08:38.675Z,8.30
2023-04-19T21:11:05.279Z,8.30
2023-04-19T21:13:32.559Z,8.30
2023-04-19T21:15:59.245Z,8.20
2023-04-19T21:18:27.683Z,8.20
2023-04-19T21:20:54.270Z,8.30
2023-04-19T21:23:20.884Z,8.30
2023-04-19T21:25:47.500Z,8.30
2023-04-19T21:28:14.127Z,8.30
2023-04-19T21:30:43.206Z,8.30
2023-04-19T21:33:10.348Z,8.20
2023-04-19T21:35:36.963Z,8.20
2023-04-19T21:38:03.573Z,8.20
2023-04-19T21:40:30.186Z,8.10
2023-04-19T21:42:56.951Z,8.00
2023-04-19T21:45:23.559Z,8.00
2023-04-19T21:47:50.644Z,7.90
2023-04-19T21:50:17.304Z,7.80
2023-04-19T21:52:43.916Z,7.70
2023-04-19T21:55:10.559Z,7.60
2023-04-19T21:57:38.320Z,7.50
2023-04-19T22:00:05.942Z,7.40
2023-04-19T22:02:32.639Z,7.30
2023-04-19T22:05:00.261Z,7.20
2023-04-19T22:07:30.338Z,7.20
2023-04-19T22:09:57.929Z,7.10
2023-04-19T22:12:24.644Z,7.00
2023-04-19T22:14:51.366Z,6.90
2023-04-19T22:17:20.748Z,6.80
2023-04-19T22:19:48.443Z,6.70
2023-04-19T22:22:15.180Z,6.60
2023-04-19T22:24:56.083Z,6.50
2023-04-19T22:27:24.348Z,6.40
2023-04-19T22:29:50.944Z,6.20
2023-04-19T22:32:17.616Z,6.10
2023-04-19T22:34:44.435Z,6.10
2023-04-19T22:37:11.103Z,6.10
2023-04-19T22:39:37.740Z,6.00
2023-04-19T22:42:04.470Z,5.90
2023-04-19T22:44:32.126Z,5.90
2023-04-19T22:46:59.753Z,5.90
2023-04-19T22:49:26.359Z,5.90
2023-04-19T22:51:54.717Z,5.90
2023-04-19T22:54:21.358Z,5.90
2023-04-19T22:56:47.973Z,5.90
2023-04-19T22:59:14.865Z,5.90
2023-04-19T23:01:41.767Z,5.90
2023-04-19T23:04:10.695Z,5.90
2023-04-19T23:06:37.294Z,5.80
2023-04-19T23:09:03.908Z,5.80
2023-04-19T23:11:30.528Z,5.80
2023-04-19T23:13:57.170Z,5.80
2023-04-19T23:16:24.444Z,5.80
2023-04-19T23:18:51.272Z,5.80
2023-04-19T23:21:17.957Z,5.70
2023-04-19T23:23:44.674Z,5.70
2023-04-19T23:26:11.303Z,5.70
2023-04-19T23:28:37.917Z,5.70
2023-04-19T23:31:04.625Z,5.70
2023-04-19T23:33:31.272Z,5.70
2023-04-19T23:35:57.889Z,5.70
2023-04-19T23:38:24.549Z,5.70
2023-04-19T23:40:51.298Z,5.70
2023-04-19T23:43:17.905Z,5.70
2023-04-19T23:45:44.551Z,5.70
2023-04-19T23:48:11.170Z,5.80
2023-04-19T23:50:37.762Z,5.70
2023-04-19T23:53:05.446Z,5.70
2023-04-19T23:55:32.061Z,5.70
2023-04-19T23:57:58.704Z,5.80
